Dades meteomassalio
Diari Summary for Diciembre 23, 2017 Units:  English    Metric   Both
« Previous Day
Next Day »
Diari Semanal Mensual Anual Personalitzat
  Maxima: Minima: Mijana:
Temperatura: TemperatureC °F -0.6 °F 4.6 °F
Rosada: DewpointC °F -3.1 °F 1 °F
Humitat: Humidity % 64 % 78 %
Velocitat del vent: WindSpeedKMH mph 0.0 mph 8 mph
Racha vent: WindSpeedGustKMH mph - -
Vent:- - WSW
Pressio: PressurehPa in 1036.8 in -
Pluja: 0.0 in    
Historical Graphs
 
 
Tabular Data for Diciembre 23, 2017
Time Temperature Dew Point Pressure Wind Wind Speed Wind Gust Humidity Rainfall Rate (Hourly) solar Conditions
TemperatureC °F DewpointC °F PressurehPa in Calm     Humidity % HourlyPrecipMM in SolarRadiationWatts/m^2 W/m2 Conditions
00:02 1.1 °F -1.8 °F 1037.8 in West 9.3 mph 9.3 mph 81 % 0.0 in 0.0 W/m2 CLR
00:07 1.1 °F -1.8 °F 1037.8 in WNW 7.4 mph 7.4 mph 81 % 0.0 in 0.0 W/m2 CLR
00:10 1.1 °F -1.8 °F 1037.8 in West 11.1 mph 11.1 mph 81 % 0.0 in 0.0 W/m2 CLR
00:11 1.1 °F -1.8 °F 1037.8 in West 11.1 mph 11.1 mph 81 % 0.0 in 0.0 W/m2 CLR
00:16 1.1 °F -1.8 °F 1037.8 in West 14.8 mph 14.8 mph 81 % 0.0 in 0.0 W/m2 CLR
00:19 1.1 °F -1.8 °F 1037.8 in WNW 13.0 mph 13.0 mph 81 % 0.0 in 0.0 W/m2 CLR
00:20 1.1 °F -1.8 °F 1037.8 in West 13.0 mph 13.0 mph 81 % 0.0 in 0.0 W/m2 CLR
00:24 1.1 °F -1.8 °F 1037.8 in West 8.0 mph 8.0 mph 81 % 0.0 in 0.0 W/m2 CLR
00:26 1.1 °F -1.9 °F 1037.8 in West 5.6 mph 5.6 mph 80 % 0.0 in 0.0 W/m2 CLR
00:31 1.1 °F -1.8 °F 1038.1 in West 6.4 mph 6.4 mph 81 % 0.0 in 0.0 W/m2 CLR
00:33 1.1 °F -1.8 °F 1038.1 in West 8.0 mph 8.0 mph 81 % 0.0 in 0.0 W/m2 CLR
00:37 1.1 °F -1.8 °F 1038.1 in West 9.3 mph 9.3 mph 81 % 0.0 in 0.0 W/m2 CLR
00:39 1.1 °F -1.8 °F 1038.1 in West 9.3 mph 9.3 mph 81 % 0.0 in 0.0 W/m2 CLR
00:44 1.1 °F -1.8 °F 1038.1 in WNW 9.3 mph 9.3 mph 81 % 0.0 in 0.0 W/m2 CLR
00:45 1.1 °F -1.6 °F 1038.1 in WNW 13.0 mph 13.0 mph 82 % 0.0 in 0.0 W/m2 CLR
00:46 1.1 °F -1.6 °F 1038.1 in West 7.4 mph 7.4 mph 82 % 0.0 in 0.0 W/m2 CLR
00:50 1.1 °F -1.6 °F 1038.1 in West 7.4 mph 7.4 mph 82 % 0.0 in 0.0 W/m2 CLR
00:55 1.1 °F -1.8 °F 1038.1 in WNW 9.3 mph 9.3 mph 81 % 0.0 in 0.0 W/m2 CLR
00:58 1.1 °F -1.8 °F 1038.1 in WNW 14.5 mph 14.5 mph 81 % 0.0 in 0.0 W/m2 CLR
01:00 1.1 °F -1.8 °F 1037.8 in West 14.8 mph 14.8 mph 81 % 0.0 in 0.0 W/m2 CLR
01:04 1.1 °F -1.9 °F 1038.1 in WNW 5.6 mph 5.6 mph 80 % 0.0 in 0.0 W/m2 CLR
01:09 1.1 °F -1.8 °F 1038.1 in West 6.4 mph 6.4 mph 81 % 0.0 in 0.0 W/m2 CLR
01:10 1.1 °F -1.8 °F 1037.8 in West 5.6 mph 5.6 mph 81 % 0.0 in 0.0 W/m2 CLR
01:15 0.6 °F -2.2 °F 1037.8 in West 7.4 mph 7.4 mph 82 % 0.0 in 0.0 W/m2 CLR
01:16 0.6 °F -2.2 °F 1037.8 in West 7.4 mph 7.4 mph 82 % 0.0 in 0.0 W/m2 CLR
01:18 0.6 °F -2.0 °F 1037.8 in WNW 7.4 mph 7.4 mph 83 % 0.0 in 0.0 W/m2 CLR
01:21 0.6 °F -2.0 °F 1037.8 in West 9.7 mph 9.7 mph 83 % 0.0 in 0.0 W/m2 CLR
01:26 0.6 °F -2.2 °F 1037.8 in West 11.3 mph 11.3 mph 82 % 0.0 in 0.0 W/m2 CLR
01:28 0.6 °F -2.2 °F 1037.5 in West 11.1 mph 11.1 mph 82 % 0.0 in 0.0 W/m2 CLR
01:33 0.0 °F -2.9 °F 1037.5 in Calm     81 % 0.0 in 0.0 W/m2 CLR
01:38 0.0 °F -2.9 °F 1037.5 in West 9.3 mph 9.3 mph 81 % 0.0 in 0.0 W/m2 CLR
01:43 0.0 °F -3.1 °F 1037.5 in WNW 9.3 mph 9.3 mph 80 % 0.0 in 0.0 W/m2 CLR
01:44 0.0 °F -3.1 °F 1037.5 in WNW 9.3 mph 9.3 mph 80 % 0.0 in 0.0 W/m2 CLR
01:45 0.0 °F -3.1 °F 1037.5 in WNW 9.3 mph   80 % 0.0 in 0.0 W/m2 CLR
01:50 0.0 °F -2.9 °F 1037.5 in WNW 11.1 mph 11.1 mph 81 % 0.0 in 0.0 W/m2 CLR
01:51 0.0 °F -2.9 °F 1037.5 in WNW 18.5 mph 18.5 mph 81 % 0.0 in 0.0 W/m2 CLR
01:56 0.6 °F -2.3 °F 1037.1 in WNW 11.1 mph 11.1 mph 81 % 0.0 in 0.0 W/m2 CLR
02:01 0.6 °F -2.5 °F 1037.1 in WNW 18.5 mph 18.5 mph 80 % 0.0 in 0.0 W/m2 CLR
02:02 0.6 °F -2.5 °F 1037.1 in West 16.7 mph 16.7 mph 80 % 0.0 in 0.0 W/m2 CLR
02:04 0.6 °F -2.7 °F 1037.1 in WSW 3.7 mph 3.7 mph 79 % 0.0 in 0.0 W/m2 CLR
02:08 0.6 °F -2.5 °F 1037.1 in WSW 5.6 mph 5.6 mph 80 % 0.0 in 0.0 W/m2 CLR
02:11 0.6 °F -2.5 °F 1037.1 in WSW 3.7 mph 3.7 mph 80 % 0.0 in 0.0 W/m2 CLR
02:16 0.0 °F -3.1 °F 1037.1 in Calm     80 % 0.0 in 0.0 W/m2 CLR
02:17 0.0 °F -3.1 °F 1037.1 in Calm     80 % 0.0 in 0.0 W/m2 CLR
02:19 0.0 °F -3.1 °F 1037.1 in Calm     80 % 0.0 in 0.0 W/m2 CLR
02:24 0.0 °F -2.9 °F 1037.1 in Calm     81 % 0.0 in 0.0 W/m2 CLR
02:29 0.6 °F -2.3 °F 1037.1 in Calm     81 % 0.0 in 0.0 W/m2 CLR
02:30 0.6 °F -2.3 °F 1037.1 in Calm     81 % 0.0 in 0.0 W/m2 CLR
02:35 0.6 °F -2.2 °F 1037.1 in West 3.7 mph 3.7 mph 82 % 0.0 in 0.0 W/m2 CLR
02:36 0.6 °F -2.2 °F 1037.1 in West 6.4 mph 6.4 mph 82 % 0.0 in 0.0 W/m2 CLR
02:41 0.6 °F -2.3 °F 1037.1 in West 8.0 mph 8.0 mph 81 % 0.0 in 0.0 W/m2 CLR
02:43 0.6 °F -2.3 °F 1037.1 in West 7.4 mph 7.4 mph 81 % 0.0 in 0.0 W/m2 CLR
02:48 0.6 °F -2.3 °F 1037.1 in WNW 9.7 mph 9.7 mph 81 % 0.0 in 0.0 W/m2 CLR
02:53 0.6 °F -2.5 °F 1037.1 in West 5.6 mph 5.6 mph 80 % 0.0 in 0.0 W/m2 CLR
02:54 0.6 °F -2.5 °F 1037.1 in Calm     80 % 0.0 in 0.0 W/m2 CLR
02:55 0.6 °F -2.5 °F 1037.1 in Calm     80 % 0.0 in 0.0 W/m2 CLR
03:00 0.6 °F -2.5 °F 1037.1 in Calm     80 % 0.0 in 0.0 W/m2 CLR
03:01 0.6 °F -2.5 °F 1037.1 in Calm     80 % 0.0 in 0.0 W/m2 CLR
03:06 1.1 °F -1.8 °F 1037.1 in Calm     81 % 0.0 in 0.0 W/m2 CLR
03:07 1.1 °F -1.8 °F 1037.1 in West 1.6 mph 1.6 mph 81 % 0.0 in 0.0 W/m2 CLR
03:08 1.1 °F -1.8 °F 1037.1 in West 5.6 mph 5.6 mph 81 % 0.0 in 0.0 W/m2 CLR
03:12 1.1 °F -1.8 °F 1037.1 in West 9.3 mph 9.3 mph 81 % 0.0 in 0.0 W/m2 CLR
03:17 1.1 °F -1.8 °F 1037.1 in WNW 11.1 mph 11.1 mph 81 % 0.0 in 0.0 W/m2 CLR
03:19 1.1 °F -1.8 °F 1037.1 in WNW 16.7 mph 16.7 mph 81 % 0.0 in 0.0 W/m2 CLR
03:24 1.7 °F -1.2 °F 1037.1 in West 13.0 mph 13.0 mph 81 % 0.0 in 0.0 W/m2 CLR
03:29 1.7 °F -1.4 °F 1037.1 in West 3.7 mph 3.7 mph 80 % 0.0 in 0.0 W/m2 CLR
03:31 1.7 °F -1.4 °F 1037.1 in WNW 11.1 mph 11.1 mph 80 % 0.0 in 0.0 W/m2 CLR
03:32 1.7 °F -1.4 °F 1037.1 in WNW 5.6 mph 5.6 mph 80 % 0.0 in 0.0 W/m2 CLR
03:36 1.7 °F -1.4 °F 1037.1 in WNW 9.7 mph 9.7 mph 80 % 0.0 in 0.0 W/m2 CLR
03:41 1.7 °F -1.6 °F 1037.1 in WNW 13.0 mph 13.0 mph 79 % 0.0 in 0.0 W/m2 CLR
03:45 2.2 °F -1.1 °F 1037.1 in WNW 12.9 mph 12.9 mph 79 % 0.0 in 0.0 W/m2 CLR
03:47 2.2 °F -1.1 °F 1037.1 in WNW 16.7 mph 16.7 mph 79 % 0.0 in 0.0 W/m2 CLR
03:52 2.2 °F -1.2 °F 1037.1 in West 11.1 mph 11.1 mph 78 % 0.0 in 0.0 W/m2 CLR
03:53 2.8 °F -0.7 °F 1037.1 in WNW 13.0 mph 13.0 mph 78 % 0.0 in 0.0 W/m2 CLR
03:58 2.8 °F -0.7 °F 1037.5 in Calm     78 % 0.0 in 0.0 W/m2 CLR
04:00 2.8 °F -0.7 °F 1037.5 in Calm     78 % 0.0 in 0.0 W/m2 CLR
04:01 2.8 °F -0.7 °F 1037.5 in WNW 4.8 mph 4.8 mph 78 % 0.0 in 0.0 W/m2 CLR
04:06 2.8 °F -0.7 °F 1037.5 in WNW 3.7 mph 7.2 mph 78 % 0.0 in 0.0 W/m2 CLR
04:09 2.8 °F -0.7 °F 1037.5 in Calm     78 % 0.0 in 0.0 W/m2 CLR
04:13 2.8 °F -0.7 °F 1037.5 in WNW 16.7 mph 16.7 mph 78 % 0.0 in 0.0 W/m2 CLR
04:18 3.3 °F -0.2 °F 1037.1 in WNW 13.0 mph 13.0 mph 78 % 0.0 in 0.0 W/m2 CLR
04:19 3.3 °F -0.2 °F 1037.1 in WNW 14.8 mph 14.8 mph 78 % 0.0 in 0.0 W/m2 CLR
04:24 3.3 °F 0.1 °F 1037.1 in WNW 14.8 mph 14.8 mph 79 % 0.0 in 0.0 W/m2 CLR
04:26 3.3 °F 0.1 °F 1037.1 in WNW 14.8 mph 14.8 mph 79 % 0.0 in 0.0 W/m2 CLR
04:31 3.3 °F 0.1 °F 1037.5 in WNW 13.0 mph 13.0 mph 79 % 0.0 in 0.0 W/m2 CLR
04:32 3.3 °F -0.2 °F 1037.5 in WNW 16.1 mph 16.1 mph 78 % 0.0 in 0.0 W/m2 CLR
04:33 3.3 °F 0.1 °F 1037.5 in WNW 16.7 mph 16.7 mph 79 % 0.0 in 0.0 W/m2 CLR
04:38 2.8 °F -0.7 °F 1037.5 in WNW 14.8 mph 14.8 mph 78 % 0.0 in 0.0 W/m2 CLR
04:39 2.8 °F -0.7 °F 1037.5 in NW 16.7 mph 16.7 mph 78 % 0.0 in 0.0 W/m2 CLR
04:44 2.8 °F -0.5 °F 1037.1 in WNW 13.0 mph 13.0 mph 79 % 0.0 in 0.0 W/m2 CLR
04:45 2.8 °F -0.5 °F 1037.1 in NW 14.8 mph 14.8 mph 79 % 0.0 in 0.0 W/m2 CLR
04:50 2.8 °F -0.5 °F 1037.1 in NW 9.7 mph 9.7 mph 79 % 0.0 in 0.0 W/m2 CLR
04:51 2.8 °F -0.5 °F 1037.1 in WNW 11.1 mph 11.1 mph 79 % 0.0 in 0.0 W/m2 CLR
04:56 2.2 °F -1.2 °F 1037.1 in WNW 17.7 mph 17.7 mph 78 % 0.0 in 0.0 W/m2 CLR
04:59 2.2 °F -1.1 °F 1037.1 in WNW 11.1 mph 11.1 mph 79 % 0.0 in 0.0 W/m2 CLR
05:02 2.8 °F -0.5 °F 1037.1 in WNW 18.5 mph 18.5 mph 79 % 0.0 in 0.0 W/m2 CLR
05:06 2.8 °F -0.5 °F 1037.1 in WNW 14.8 mph 14.8 mph 79 % 0.0 in 0.0 W/m2 CLR
05:11 3.3 °F 0.1 °F 1037.1 in WNW 16.7 mph 16.7 mph 79 % 0.0 in 0.0 W/m2 CLR
05:12 3.3 °F 0.1 °F 1037.1 in WNW 18.5 mph 18.5 mph 79 % 0.0 in 0.0 W/m2 CLR
05:16 3.3 °F 0.1 °F 1037.1 in WNW 14.8 mph 14.8 mph 79 % 0.0 in 0.0 W/m2 CLR
05:17 3.3 °F 0.1 °F 1036.8 in WNW 14.8 mph 14.8 mph 79 % 0.0 in 0.0 W/m2 CLR
05:23 3.9 °F 0.6 °F 1036.8 in NW 18.5 mph 18.5 mph 79 % 0.0 in 0.0 W/m2 CLR
05:25 3.9 °F 0.6 °F 1036.8 in WNW 19.3 mph 19.3 mph 79 % 0.0 in 0.0 W/m2 CLR
05:28 3.9 °F 0.6 °F 1036.8 in WNW 18.5 mph 18.5 mph 79 % 0.0 in 0.0 W/m2 CLR
05:33 3.9 °F 0.6 °F 1036.8 in WNW 14.5 mph 14.5 mph 79 % 0.0 in 0.0 W/m2 CLR
05:35 3.9 °F 0.6 °F 1037.1 in WNW 16.7 mph 16.7 mph 79 % 0.0 in 0.0 W/m2 CLR
05:40 4.4 °F 1.1 °F 1036.8 in WNW 16.7 mph 16.7 mph 79 % 0.0 in 0.0 W/m2 CLR
05:41 4.4 °F 1.1 °F 1036.8 in West 16.7 mph 16.7 mph 79 % 0.0 in 0.0 W/m2 CLR
05:46 5.0 °F 1.8 °F 1036.8 in WNW 14.8 mph 14.8 mph 80 % 0.0 in 0.0 W/m2 CLR
05:47 5.0 °F 1.8 °F 1036.8 in WNW 14.8 mph 14.8 mph 80 % 0.0 in 0.0 W/m2 CLR
05:52 5.0 °F 1.8 °F 1037.1 in WNW 14.8 mph 14.8 mph 80 % 0.0 in 0.0 W/m2 CLR
05:54 5.0 °F 1.8 °F 1036.8 in WNW 16.7 mph 16.7 mph 80 % 0.0 in 0.0 W/m2 CLR
05:56 4.4 °F 1.3 °F 1036.8 in WNW 17.7 mph 17.7 mph 80 % 0.0 in 0.0 W/m2 CLR
06:00 4.4 °F 1.3 °F 1036.8 in NW 16.7 mph 16.7 mph 80 % 0.0 in 0.0 W/m2 CLR
06:05 4.4 °F 1.3 °F 1036.8 in WNW 13.0 mph 13.0 mph 80 % 0.0 in 0.0 W/m2 CLR
06:08 4.4 °F 1.4 °F 1036.8 in WNW 16.7 mph 16.7 mph 81 % 0.0 in 0.0 W/m2 CLR
06:11 4.4 °F 1.4 °F 1036.8 in WNW 18.5 mph 18.5 mph 81 % 0.0 in 0.0 W/m2 CLR
06:13 4.4 °F 1.4 °F 1037.1 in WNW 20.4 mph 20.4 mph 81 % 0.0 in 0.0 W/m2 CLR
06:18 4.4 °F 1.3 °F 1037.1 in West 1.6 mph 1.6 mph 80 % 0.0 in 0.0 W/m2 CLR
06:19 4.4 °F 1.3 °F 1037.1 in WNW 5.6 mph 5.6 mph 80 % 0.0 in 0.0 W/m2 CLR
06:23 3.9 °F 0.9 °F 1037.1 in NW 8.0 mph 8.0 mph 81 % 0.0 in 0.0 W/m2 CLR
06:25 3.9 °F 0.9 °F 1037.1 in WNW 13.0 mph 13.0 mph 81 % 0.0 in 0.0 W/m2 CLR
06:29 3.9 °F 0.9 °F 1037.1 in WNW 9.7 mph 9.7 mph 81 % 0.0 in 0.0 W/m2 CLR
06:30 3.9 °F 0.9 °F 1037.1 in WNW 9.7 mph 9.7 mph 81 % 0.0 in 0.0 W/m2 CLR
06:35 3.9 °F 0.9 °F 1037.1 in WNW 9.3 mph 9.3 mph 81 % 0.0 in 0.0 W/m2 CLR
06:37 3.3 °F 0.4 °F 1037.1 in WNW 11.1 mph 11.1 mph 81 % 0.0 in 0.0 W/m2 CLR
06:42 3.3 °F 0.4 °F 1037.1 in WNW 7.4 mph 7.4 mph 81 % 0.0 in 0.0 W/m2 CLR
06:44 3.3 °F 0.4 °F 1037.1 in WNW 5.6 mph 5.6 mph 81 % 0.0 in 0.0 W/m2 CLR
06:49 3.3 °F 0.4 °F 1037.5 in Calm     81 % 0.0 in 0.0 W/m2 CLR
06:54 2.8 °F -0.2 °F 1037.5 in Calm     81 % 0.0 in 0.0 W/m2 CLR
06:55 2.8 °F -0.2 °F 1037.5 in Calm     81 % 0.0 in 0.0 W/m2 CLR
06:58 2.8 °F -0.2 °F 1037.5 in WNW 11.3 mph 11.3 mph 81 % 0.0 in 0.0 W/m2 CLR
07:00 2.8 °F 0.0 °F 1037.5 in West 9.3 mph 9.3 mph 82 % 0.0 in 0.0 W/m2 CLR
07:05 2.8 °F 0.0 °F 1037.5 in WNW 13.0 mph 13.0 mph 82 % 0.0 in 0.0 W/m2 CLR
07:06 2.8 °F 0.0 °F 1037.5 in WNW 1.9 mph 1.9 mph 82 % 0.0 in 0.0 W/m2 CLR
07:10 2.2 °F -0.6 °F 1037.5 in Calm     82 % 0.0 in 0.0 W/m2 CLR
07:12 2.2 °F -0.6 °F 1037.5 in WNW 4.8 mph   82 % 0.0 in 0.0 W/m2 CLR
07:17 2.2 °F -0.6 °F 1037.5 in WNW 16.7 mph 16.7 mph 82 % 0.0 in 0.0 W/m2 CLR
07:20 2.2 °F -0.6 °F 1037.5 in West 14.8 mph 14.8 mph 82 % 0.0 in 0.0 W/m2 CLR
07:25 2.2 °F -0.7 °F 1037.5 in WNW 5.6 mph 5.6 mph 81 % 0.0 in 0.0 W/m2 CLR
07:30 2.2 °F -0.4 °F 1037.5 in WNW 5.6 mph 5.6 mph 83 % 0.0 in 0.0 W/m2 CLR
07:31 2.2 °F -0.4 °F 1037.5 in WNW 5.6 mph 5.6 mph 83 % 0.0 in 0.0 W/m2 CLR
07:36 2.2 °F -0.6 °F 1037.5 in WNW 5.6 mph 5.6 mph 82 % 0.0 in 0.0 W/m2 CLR
07:37 2.2 °F -0.6 °F 1037.5 in WNW 5.6 mph 5.6 mph 82 % 0.0 in 0.0 W/m2 CLR
07:42 2.2 °F -0.6 °F 1037.8 in NW 1.9 mph   82 % 0.0 in 0.0 W/m2 CLR
07:43 2.2 °F -0.6 °F 1037.8 in Calm     82 % 0.0 in 0.0 W/m2 CLR
07:48 2.2 °F -0.6 °F 1037.8 in Calm     82 % 0.0 in 0.0 W/m2 CLR
07:49 2.2 °F -0.6 °F 1037.8 in Calm     82 % 0.0 in 0.0 W/m2 CLR
07:50 2.2 °F -0.6 °F 1037.8 in Calm     82 % 0.0 in 0.0 W/m2 CLR
07:54 2.2 °F -0.7 °F 1037.8 in Calm     81 % 0.0 in 0.0 W/m2 CLR
07:59 1.7 °F -1.2 °F 1037.8 in Calm     81 % 0.0 in 0.0 W/m2 CLR
08:04 1.7 °F -1.1 °F 1037.8 in Calm     82 % 0.0 in 0.0 W/m2 CLR
08:06 2.2 °F -0.7 °F 1037.8 in Calm     81 % 0.0 in 0.0 W/m2 CLR
08:11 2.2 °F -0.4 °F 1037.8 in Calm     83 % 0.0 in 0.0 W/m2 CLR
08:16 2.2 °F -0.4 °F 1037.8 in Calm     83 % 0.0 in 0.0 W/m2 OVC
08:17 2.2 °F -0.4 °F 1037.8 in Calm     83 % 0.0 in 0.0 W/m2 OVC
08:22 1.7 °F -0.7 °F 1037.8 in Calm     84 % 0.0 in 0.0 W/m2 OVC
08:24 1.7 °F -0.6 °F 1037.8 in Calm     85 % 0.0 in 5.0 W/m2 OVC
08:28 1.7 °F -0.6 °F 1037.8 in Calm     85 % 0.0 in 5.0 W/m2 OVC
08:29 1.7 °F -0.6 °F 1037.8 in Calm     85 % 0.0 in 7.0 W/m2 OVC
08:30 1.7 °F -0.6 °F 1037.8 in Calm     85 % 0.0 in 7.0 W/m2 BKN
08:34 1.1 °F -0.9 °F 1037.8 in West 8.0 mph 8.0 mph 86 % 0.0 in 7.0 W/m2 BKN
08:38 1.1 °F -0.9 °F 1038.1 in West 9.3 mph 9.3 mph 86 % 0.0 in 9.0 W/m2 BKN
08:40 1.1 °F -0.9 °F 1038.1 in West 7.4 mph 7.4 mph 86 % 0.0 in 9.0 W/m2 BKN
08:45 1.1 °F -1.1 °F 1038.1 in West 8.0 mph 8.0 mph 85 % 0.0 in 12.0 W/m2 BKN
08:46 1.1 °F -1.1 °F 1038.1 in West 8.0 mph 8.0 mph 85 % 0.0 in 12.0 W/m2 BKN
08:51 1.1 °F -1.1 °F 1038.1 in West 7.4 mph 7.4 mph 85 % 0.0 in 16.0 W/m2 BKN
08:52 1.1 °F -1.1 °F 1038.1 in West 7.4 mph 7.4 mph 85 % 0.0 in 16.0 W/m2 BKN
08:56 1.1 °F -0.9 °F 1038.1 in West 5.6 mph 5.6 mph 86 % 0.0 in 18.0 W/m2 BKN
09:01 1.1 °F -0.9 °F 1038.1 in WNW 9.3 mph 9.3 mph 86 % 0.0 in 19.0 W/m2 BKN
09:02 1.1 °F -0.9 °F 1038.1 in WNW 9.3 mph 9.3 mph 86 % 0.0 in 26.0 W/m2 BKN
09:07 1.1 °F -1.1 °F 1038.1 in NW 5.6 mph 5.6 mph 85 % 0.0 in 21.0 W/m2 BKN
09:08 1.1 °F -1.1 °F 1038.1 in WNW 5.6 mph 5.6 mph 85 % 0.0 in 21.0 W/m2 BKN
09:13 1.1 °F -1.3 °F 1038.1 in Calm     84 % 0.0 in 23.0 W/m2 BKN
09:15 1.1 °F -1.4 °F 1038.5 in Calm     83 % 0.0 in 23.0 W/m2 BKN
09:16 1.1 °F -1.4 °F 1038.5 in Calm     83 % 0.0 in 33.0 W/m2 BKN
09:21 1.1 °F -1.4 °F 1038.5 in Calm     83 % 0.0 in 77.0 W/m2 FEW
09:22 1.1 °F -1.4 °F 1038.5 in Calm     83 % 0.0 in 70.0 W/m2 FEW
09:27 1.1 °F -1.3 °F 1038.5 in Calm     84 % 0.0 in 86.0 W/m2 SCT
09:30 1.1 °F -1.3 °F 1038.5 in West 1.6 mph 1.6 mph 84 % 0.0 in 84.0 W/m2 FEW
09:32 1.1 °F -1.3 °F 1038.5 in West 9.7 mph 9.7 mph 84 % 0.0 in 97.0 W/m2 CLR
09:37 1.7 °F -0.7 °F 1038.5 in West 5.6 mph 5.6 mph 84 % 0.0 in 121.0 W/m2 CLR
09:38 1.7 °F -0.7 °F 1038.5 in WSW 5.6 mph 5.6 mph 84 % 0.0 in 121.0 W/m2 CLR
09:39 1.7 °F -0.9 °F 1038.5 in West 3.7 mph 3.7 mph 83 % 0.0 in 125.0 W/m2 CLR
09:44 1.7 °F -1.1 °F 1038.5 in West 1.6 mph   82 % 0.0 in 60.0 W/m2 CLR
09:49 1.7 °F -1.2 °F 1038.8 in Calm     81 % 0.0 in 83.0 W/m2 CLR
09:50 1.7 °F -1.2 °F 1038.8 in Calm     81 % 0.0 in 83.0 W/m2 CLR
09:51 2.2 °F -0.7 °F 1038.8 in Calm     81 % 0.0 in 76.0 W/m2 CLR
09:55 2.2 °F -0.9 °F 1038.8 in West 7.4 mph 7.4 mph 80 % 0.0 in 169.0 W/m2 FEW
09:58 2.2 °F -0.9 °F 1038.8 in West 7.4 mph 7.4 mph 80 % 0.0 in 162.0 W/m2 FEW
10:03 3.9 °F 0.8 °F 1038.8 in WNW 7.4 mph 7.7 mph 80 % 0.0 in 116.0 W/m2 CLR
10:04 3.9 °F 0.8 °F 1038.8 in WNW 7.4 mph 7.4 mph 80 % 0.0 in 116.0 W/m2 CLR
10:09 4.4 °F 0.9 °F 1038.8 in WNW 22.2 mph 22.2 mph 78 % 0.0 in 156.0 W/m2 CLR
10:13 5.0 °F 1.3 °F 1039.2 in WNW 16.7 mph 16.7 mph 77 % 0.0 in 218.0 W/m2 CLR
10:18 6.1 °F 2.2 °F 1038.8 in WNW 18.5 mph 18.5 mph 76 % 0.0 in 195.0 W/m2 CLR
10:19 6.7 °F 2.7 °F 1038.8 in NW 18.5 mph 18.5 mph 76 % 0.0 in 100.0 W/m2 CLR
10:20 7.2 °F 3.3 °F 1039.2 in NW 16.7 mph 16.7 mph 76 % 0.0 in 100.0 W/m2 CLR
10:25 7.8 °F 3.6 °F 1039.2 in WNW 18.5 mph 18.5 mph 75 % 0.0 in 260.0 W/m2 CLR
10:27 8.3 °F 4.3 °F 1039.2 in NNW 14.8 mph 14.8 mph 76 % 0.0 in 264.0 W/m2 CLR
10:31 8.9 °F 4.7 °F 1039.2 in WNW 20.9 mph 20.9 mph 75 % 0.0 in 271.0 W/m2 CLR
10:36 8.9 °F 4.7 °F 1039.5 in NW 22.2 mph 22.2 mph 75 % 0.0 in 128.0 W/m2 CLR
10:41 8.9 °F 4.7 °F 1039.5 in NW 19.3 mph 19.3 mph 75 % 0.0 in 123.0 W/m2 CLR
10:42 8.9 °F 4.7 °F 1039.2 in NW 16.7 mph 16.7 mph 75 % 0.0 in 123.0 W/m2 CLR
10:47 9.4 °F 5.2 °F 1039.5 in NW 16.7 mph 16.7 mph 75 % 0.0 in 297.0 W/m2 CLR
10:52 9.4 °F 5.1 °F 1039.5 in NW 18.5 mph 18.5 mph 74 % 0.0 in 299.0 W/m2 CLR
10:55 9.4 °F 5.1 °F 1039.5 in NW 20.9 mph 20.9 mph 74 % 0.0 in 244.0 W/m2 CLR
11:00 9.4 °F 5.1 °F 1039.5 in NW 17.7 mph 17.7 mph 74 % 0.0 in 262.0 W/m2 CLR
11:05 9.4 °F 5.1 °F 1039.5 in NW 18.5 mph 18.5 mph 74 % 0.0 in 323.0 W/m2 CLR
11:10 9.4 °F 4.8 °F 1039.5 in NW 24.1 mph 24.1 mph 73 % 0.0 in 330.0 W/m2 CLR
11:11 10.0 °F 5.4 °F 1039.5 in WNW 24.1 mph 24.1 mph 73 % 0.0 in 330.0 W/m2 CLR
11:13 10.0 °F 5.4 °F 1039.5 in NW 24.1 mph 24.1 mph 73 % 0.0 in 339.0 W/m2 CLR
11:17 10.0 °F 5.4 °F 1039.5 in NW 27.8 mph 27.8 mph 73 % 0.0 in 343.0 W/m2 CLR
11:22 10.0 °F 5.4 °F 1039.5 in NW 18.5 mph 18.5 mph 73 % 0.0 in 338.0 W/m2 CLR
11:23 10.0 °F 5.2 °F 1039.5 in WNW 20.9 mph 20.9 mph 72 % 0.0 in 323.0 W/m2 CLR
11:26 10.0 °F 5.4 °F 1039.5 in NW 18.5 mph 18.5 mph 73 % 0.0 in 308.0 W/m2 CLR
11:30 10.0 °F 5.2 °F 1039.5 in WNW 20.9 mph 20.9 mph 72 % 0.0 in 366.0 W/m2 CLR
11:35 10.0 °F 5.2 °F 1039.5 in NW 24.1 mph 24.1 mph 72 % 0.0 in 339.0 W/m2 CLR
11:40 10.0 °F 5.2 °F 1039.5 in WNW 24.1 mph 24.1 mph 72 % 0.0 in 236.0 W/m2 CLR
11:41 10.0 °F 5.2 °F 1039.5 in WNW 18.5 mph 18.5 mph 72 % 0.0 in 383.0 W/m2 CLR
11:46 10.6 °F 5.7 °F 1039.5 in NW 18.5 mph 18.5 mph 72 % 0.0 in 397.0 W/m2 CLR
11:49 10.6 °F 5.5 °F 1039.5 in NW 17.7 mph 17.7 mph 71 % 0.0 in 397.0 W/m2 CLR
11:54 10.6 °F 5.5 °F 1039.5 in WNW 18.5 mph 18.5 mph 71 % 0.0 in 427.0 W/m2 CLR
11:57 10.6 °F 5.5 °F 1039.5 in NNW 17.7 mph 17.7 mph 71 % 0.0 in 432.0 W/m2 CLR
12:02 11.1 °F 5.8 °F 1039.5 in NW 22.2 mph 22.2 mph 70 % 0.0 in 397.0 W/m2 CLR
12:04 11.1 °F 5.8 °F 1039.5 in NW 18.5 mph 18.5 mph 70 % 0.0 in 406.0 W/m2 CLR
12:08 11.1 °F 5.8 °F 1039.5 in NW 24.1 mph 24.1 mph 70 % 0.0 in 403.0 W/m2 CLR
12:09 11.1 °F 5.8 °F 1039.5 in North 24.1 mph 24.1 mph 70 % 0.0 in 403.0 W/m2 CLR
12:14 11.1 °F 5.8 °F 1039.5 in NNW 18.5 mph 18.5 mph 70 % 0.0 in 410.0 W/m2 CLR
12:15 11.1 °F 5.8 °F 1039.5 in NNW 18.5 mph 18.5 mph 70 % 0.0 in 420.0 W/m2 CLR
12:20 11.7 °F 6.2 °F 1039.2 in NW 25.9 mph 25.9 mph 69 % 0.0 in 429.0 W/m2 CLR
12:21 11.7 °F 6.2 °F 1039.2 in NW 24.1 mph 24.1 mph 69 % 0.0 in 425.0 W/m2 CLR
12:26 11.7 °F 5.9 °F 1039.2 in NNW 27.8 mph 27.8 mph 68 % 0.0 in 457.0 W/m2 CLR
12:28 11.1 °F 5.4 °F 1039.2 in NNW 18.5 mph 18.5 mph 68 % 0.0 in 443.0 W/m2 CLR
12:32 11.1 °F 5.4 °F 1039.2 in WNW 27.8 mph 27.8 mph 68 % 0.0 in 84.0 W/m2 CLR
12:36 11.1 °F 5.6 °F 1039.2 in WNW 22.2 mph 22.2 mph 69 % 0.0 in 56.0 W/m2 CLR
12:37 11.1 °F 5.8 °F 1039.2 in NW 22.2 mph 22.2 mph 70 % 0.0 in 56.0 W/m2 FEW
12:42 10.6 °F 5.3 °F 1038.8 in WNW 24.1 mph 24.1 mph 70 % 0.0 in 439.0 W/m2 FEW
12:44 10.6 °F 5.3 °F 1038.8 in WNW 24.1 mph 24.1 mph 70 % 0.0 in 360.0 W/m2 FEW
12:46 10.6 °F 5.1 °F 1038.8 in NW 20.4 mph 20.4 mph 69 % 0.0 in 67.0 W/m2 CLR
12:49 10.6 °F 5.1 °F 1038.8 in WNW 18.5 mph 18.5 mph 69 % 0.0 in 58.0 W/m2 CLR
12:54 10.6 °F 5.3 °F 1038.8 in NNW 18.5 mph 18.5 mph 70 % 0.0 in 65.0 W/m2 FEW
12:57 10.0 °F 5.0 °F 1038.8 in NNW 16.7 mph 16.7 mph 71 % 0.0 in 65.0 W/m2 FEW
13:00 10.6 °F 5.5 °F 1038.8 in NW 16.7 mph 16.7 mph 71 % 0.0 in 431.0 W/m2 FEW
13:05 10.6 °F 5.5 °F 1038.8 in North 16.7 mph 16.7 mph 71 % 0.0 in 439.0 W/m2 CLR
13:06 11.1 °F 6.1 °F 1038.5 in NW 14.8 mph 14.8 mph 71 % 0.0 in 450.0 W/m2 CLR
13:08 11.1 °F 5.8 °F 1038.5 in WNW 13.0 mph 13.0 mph 70 % 0.0 in 446.0 W/m2 CLR
13:11 11.1 °F 5.6 °F 1038.5 in North 18.5 mph 18.5 mph 69 % 0.0 in 436.0 W/m2 CLR
13:16 11.7 °F 5.9 °F 1038.5 in NNW 20.4 mph 20.4 mph 68 % 0.0 in 72.0 W/m2 CLR
13:21 11.7 °F 6.2 °F 1038.5 in NW 17.7 mph 17.7 mph 69 % 0.0 in 441.0 W/m2 CLR
13:22 11.7 °F 6.2 °F 1038.5 in NW 18.5 mph 18.5 mph 69 % 0.0 in 438.0 W/m2 CLR
13:23 11.7 °F 5.9 °F 1038.5 in NW 18.5 mph 18.5 mph 68 % 0.0 in 441.0 W/m2 CLR
13:27 11.7 °F 5.9 °F 1038.5 in NNW 16.7 mph 16.7 mph 68 % 0.0 in 100.0 W/m2 CLR
13:32 12.2 °F 6.5 °F 1038.5 in NNW 18.5 mph 18.5 mph 68 % 0.0 in 461.0 W/m2 CLR
13:34 12.2 °F 6.3 °F 1038.1 in NW 13.0 mph 13.0 mph 67 % 0.0 in 452.0 W/m2 CLR
13:39 12.2 °F 6.3 °F 1038.1 in NNW 18.5 mph 19.1 mph 67 % 0.0 in 443.0 W/m2 CLR
13:40 12.2 °F 6.1 °F 1038.1 in NNW 20.4 mph 20.4 mph 66 % 0.0 in 452.0 W/m2 CLR
13:45 12.2 °F 6.1 °F 1038.1 in North 18.5 mph 18.5 mph 66 % 0.0 in 492.0 W/m2 CLR
13:47 12.2 °F 5.8 °F 1038.1 in North 18.5 mph 18.5 mph 65 % 0.0 in 459.0 W/m2 CLR
13:51 12.8 °F 6.3 °F 1037.8 in NNW 20.4 mph 20.4 mph 65 % 0.0 in 408.0 W/m2 CLR
13:52 12.8 °F 6.3 °F 1037.8 in NNW 20.4 mph 20.4 mph 65 % 0.0 in 408.0 W/m2 CLR
13:57 12.8 °F 6.3 °F 1037.8 in NNW 18.5 mph 18.5 mph 65 % 0.0 in 306.0 W/m2 CLR
14:02 12.8 °F 6.3 °F 1037.8 in NNW 13.0 mph 13.0 mph 65 % 0.0 in 434.0 W/m2 CLR
14:07 12.8 °F 6.1 °F 1037.8 in NNW 18.5 mph 18.5 mph 64 % 0.0 in 427.0 W/m2 CLR
14:08 12.8 °F 6.1 °F 1037.8 in NNW 14.8 mph 14.8 mph 64 % 0.0 in 425.0 W/m2 CLR
14:11 12.8 °F 6.1 °F 1037.8 in NE 16.7 mph 16.7 mph 64 % 0.0 in 429.0 W/m2 CLR
14:14 12.8 °F 6.1 °F 1037.8 in NNE 7.4 mph 7.4 mph 64 % 0.0 in 406.0 W/m2 CLR
14:19 12.8 °F 6.1 °F 1037.5 in NNE 16.7 mph 16.7 mph 64 % 0.0 in 388.0 W/m2 CLR
14:22 12.8 °F 6.3 °F 1037.5 in NE 12.9 mph 12.9 mph 65 % 0.0 in 276.0 W/m2 CLR
14:24 12.8 °F 6.3 °F 1037.5 in NE 13.0 mph 13.0 mph 65 % 0.0 in 381.0 W/m2 CLR
14:29 12.2 °F 5.8 °F 1037.5 in NNW 18.5 mph 18.5 mph 65 % 0.0 in 366.0 W/m2 CLR
14:34 12.2 °F 6.1 °F 1037.5 in NNE 13.0 mph 13.0 mph 66 % 0.0 in 364.0 W/m2 CLR
14:36 12.2 °F 6.1 °F 1037.5 in NNE 11.1 mph 11.1 mph 66 % 0.0 in 352.0 W/m2 CLR
14:39 12.2 °F 6.1 °F 1037.5 in NE 11.1 mph 11.1 mph 66 % 0.0 in 345.0 W/m2 CLR
14:43 12.2 °F 6.1 °F 1037.5 in NE 13.0 mph 13.0 mph 66 % 0.0 in 338.0 W/m2 CLR
14:48 12.2 °F 6.1 °F 1037.1 in NE 18.5 mph 18.5 mph 66 % 0.0 in 327.0 W/m2 CLR
14:50 12.2 °F 6.1 °F 1037.5 in NNE 14.8 mph 14.8 mph 66 % 0.0 in 325.0 W/m2 CLR
14:55 12.8 °F 6.6 °F 1037.1 in North 12.9 mph 12.9 mph 66 % 0.0 in 316.0 W/m2 CLR
15:00 12.2 °F 6.1 °F 1037.1 in North 13.0 mph 13.0 mph 66 % 0.0 in 309.0 W/m2 CLR
15:01 12.2 °F 6.1 °F 1037.1 in NE 13.0 mph 13.0 mph 66 % 0.0 in 308.0 W/m2 CLR
15:06 12.2 °F 6.1 °F 1037.1 in NE 16.1 mph 16.1 mph 66 % 0.0 in 297.0 W/m2 CLR
15:12 12.2 °F 5.8 °F 1037.1 in NNE 16.7 mph 16.7 mph 65 % 0.0 in 290.0 W/m2 CLR
15:17 12.2 °F 5.8 °F 1037.1 in NNE 13.0 mph 13.0 mph 65 % 0.0 in 278.0 W/m2 CLR
15:19 12.2 °F 5.8 °F 1037.1 in NNE 13.0 mph   65 % 0.0 in 274.0 W/m2 CLR
15:24 12.2 °F 5.8 °F 1037.1 in NE 16.7 mph 16.7 mph 65 % 0.0 in 264.0 W/m2 CLR
15:29 12.2 °F 5.8 °F 1037.1 in NNE 14.8 mph   65 % 0.0 in 255.0 W/m2 CLR
15:33 12.2 °F 5.8 °F 1037.1 in NE 14.8 mph 14.8 mph 65 % 0.0 in 246.0 W/m2 CLR
15:34 12.2 °F 5.8 °F 1037.1 in NNE 14.8 mph 14.8 mph 65 % 0.0 in 241.0 W/m2 CLR
15:39 12.2 °F 5.8 °F 1037.5 in North 9.7 mph 9.7 mph 65 % 0.0 in 229.0 W/m2 CLR
15:40 12.2 °F 5.8 °F 1037.5 in NNE 16.7 mph 16.7 mph 65 % 0.0 in 227.0 W/m2 CLR
15:45 12.2 °F 5.8 °F 1037.1 in NNE 14.8 mph 14.8 mph 65 % 0.0 in 211.0 W/m2 CLR
15:47 12.2 °F 6.1 °F 1037.1 in NNE 16.7 mph 16.7 mph 66 % 0.0 in 209.0 W/m2 CLR
15:52 12.2 °F 6.1 °F 1037.1 in NNE 11.3 mph 11.3 mph 66 % 0.0 in 195.0 W/m2 CLR
15:54 12.2 °F 6.1 °F 1037.5 in NE 16.7 mph 16.7 mph 66 % 0.0 in 190.0 W/m2 CLR
15:57 11.7 °F 5.5 °F 1037.1 in NNE 14.8 mph 14.8 mph 66 % 0.0 in 183.0 W/m2 CLR
15:59 11.7 °F 5.5 °F 1037.5 in NNE 13.0 mph 13.0 mph 66 % 0.0 in 178.0 W/m2 CLR
16:02 11.7 °F 5.5 °F 1037.5 in NE 13.0 mph 13.0 mph 66 % 0.0 in 174.0 W/m2 CLR
16:07 11.1 °F 5.0 °F 1037.5 in NNE 13.0 mph 13.0 mph 66 % 0.0 in 155.0 W/m2 CLR
16:08 11.1 °F 5.0 °F 1037.5 in NE 13.0 mph 13.0 mph 66 % 0.0 in 155.0 W/m2 CLR
16:13 11.1 °F 5.0 °F 1037.5 in NNE 9.7 mph 9.7 mph 66 % 0.0 in 142.0 W/m2 CLR
16:18 11.1 °F 5.0 °F 1037.5 in NNE 9.7 mph 9.7 mph 66 % 0.0 in 128.0 W/m2 CLR
16:19 11.1 °F 5.0 °F 1037.5 in NNE 11.1 mph 11.1 mph 66 % 0.0 in 125.0 W/m2 CLR
16:23 11.1 °F 5.0 °F 1037.5 in NNE 13.0 mph 13.0 mph 66 % 0.0 in 114.0 W/m2 CLR
16:24 11.1 °F 5.0 °F 1037.5 in NNE 13.0 mph 13.0 mph 66 % 0.0 in 113.0 W/m2 CLR
16:28 10.6 °F 4.4 °F 1037.5 in NNE 13.0 mph 13.0 mph 66 % 0.0 in 102.0 W/m2 CLR
16:29 10.6 °F 4.4 °F 1037.5 in NNE 11.1 mph 11.1 mph 66 % 0.0 in 98.0 W/m2 CLR
16:30 10.6 °F 4.4 °F 1037.5 in NNE 11.1 mph 11.1 mph 66 % 0.0 in 98.0 W/m2 CLR
16:34 10.6 °F 4.4 °F 1037.5 in NNE 1.9 mph   66 % 0.0 in 88.0 W/m2 CLR
16:35 10.6 °F 4.4 °F 1037.1 in Calm     66 % 0.0 in 84.0 W/m2 CLR
16:40 10.6 °F 4.4 °F 1037.5 in Calm     66 % 0.0 in 72.0 W/m2 FEW
16:41 10.6 °F 4.2 °F 1037.5 in Calm     65 % 0.0 in 62.0 W/m2 SCT
16:46 10.6 °F 4.4 °F 1037.5 in Calm     66 % 0.0 in 47.0 W/m2 SCT
16:47 10.6 °F 4.4 °F 1037.5 in Calm     66 % 0.0 in 47.0 W/m2 SCT
16:48 10.0 °F 3.9 °F 1037.5 in Calm     66 % 0.0 in 47.0 W/m2 SCT
16:52 10.0 °F 3.9 °F 1037.5 in Calm     66 % 0.0 in 42.0 W/m2 BKN
16:57 9.4 °F 3.4 °F 1037.5 in Calm     66 % 0.0 in 33.0 W/m2 BKN
16:59 9.4 °F 3.4 °F 1037.1 in Calm     66 % 0.0 in 33.0 W/m2 BKN
17:04 8.9 °F 2.9 °F 1037.5 in Calm     66 % 0.0 in 23.0 W/m2 BKN
17:06 8.9 °F 2.9 °F 1037.5 in Calm     66 % 0.0 in 19.0 W/m2 BKN
17:07 8.9 °F 2.9 °F 1037.5 in Calm     66 % 0.0 in 19.0 W/m2 BKN
17:12 8.3 °F 2.6 °F 1037.5 in Calm     67 % 0.0 in 14.0 W/m2 BKN
17:13 8.3 °F 2.6 °F 1037.5 in Calm     67 % 0.0 in 14.0 W/m2 BKN
17:18 8.3 °F 2.6 °F 1037.5 in Calm     67 % 0.0 in 12.0 W/m2 BKN
17:23 7.8 °F 2.2 °F 1037.5 in Calm     68 % 0.0 in 11.0 W/m2 BKN
17:24 7.8 °F 2.2 °F 1037.5 in Calm     68 % 0.0 in 11.0 W/m2 BKN
17:29 7.8 °F 2.4 °F 1037.5 in Calm     69 % 0.0 in 7.0 W/m2 BKN
17:30 7.2 °F 1.9 °F 1037.5 in Calm     69 % 0.0 in 7.0 W/m2 BKN
17:35 7.2 °F 2.1 °F 1037.5 in Calm     70 % 0.0 in 5.0 W/m2 OVC
17:40 6.7 °F 1.6 °F 1037.5 in Calm     70 % 0.0 in 0.0 W/m2 OVC
17:46 6.1 °F 1.2 °F 1037.5 in Calm     71 % 0.0 in 0.0 W/m2 CLR
17:51 6.1 °F 1.2 °F 1037.5 in Calm     71 % 0.0 in 0.0 W/m2 CLR
17:54 5.6 °F 0.7 °F 1037.5 in Calm     71 % 0.0 in 0.0 W/m2 CLR
17:57 5.6 °F 0.7 °F 1037.8 in Calm     71 % 0.0 in 0.0 W/m2 CLR
17:59 5.6 °F 0.7 °F 1037.5 in Calm     71 % 0.0 in 0.0 W/m2 CLR
18:03 5.6 °F 0.9 °F 1037.5 in Calm     72 % 0.0 in 0.0 W/m2 CLR
18:08 5.6 °F 0.9 °F 1037.5 in Calm     72 % 0.0 in 0.0 W/m2 CLR
18:13 5.6 °F 1.3 °F 1037.5 in Calm     74 % 0.0 in 0.0 W/m2 CLR
18:18 5.6 °F 1.3 °F 1037.5 in Calm     74 % 0.0 in 0.0 W/m2 CLR
18:19 5.6 °F 1.3 °F 1037.8 in Calm     74 % 0.0 in 0.0 W/m2 CLR
18:20 5.6 °F 1.3 °F 1037.8 in Calm     74 % 0.0 in 0.0 W/m2 CLR
18:24 5.6 °F 1.3 °F 1037.8 in Calm     74 % 0.0 in 0.0 W/m2 CLR
18:27 5.6 °F 1.3 °F 1037.8 in Calm     74 % 0.0 in 0.0 W/m2 CLR
18:30 5.6 °F 1.3 °F 1037.8 in Calm     74 % 0.0 in 0.0 W/m2 CLR
18:34 5.6 °F 1.4 °F 1037.8 in Calm     75 % 0.0 in 0.0 W/m2 CLR
18:36 5.6 °F 1.7 °F 1037.8 in Calm     76 % 0.0 in 0.0 W/m2 CLR
18:41 5.0 °F 1.1 °F 1038.1 in Calm     76 % 0.0 in 0.0 W/m2 CLR
18:46 5.0 °F 1.3 °F 1038.1 in Calm     77 % 0.0 in 0.0 W/m2 CLR
18:47 4.4 °F 0.8 °F 1038.1 in Calm     77 % 0.0 in 0.0 W/m2 CLR
18:48 4.4 °F 0.8 °F 1038.1 in Calm     77 % 0.0 in 0.0 W/m2 CLR
18:53 4.4 °F 0.8 °F 1037.8 in Calm     77 % 0.0 in 0.0 W/m2 CLR
18:54 4.4 °F 0.8 °F 1037.8 in Calm     77 % 0.0 in 0.0 W/m2 CLR
18:59 3.9 °F 0.4 °F 1038.1 in Calm     78 % 0.0 in 0.0 W/m2 CLR
19:04 3.9 °F 0.4 °F 1038.1 in Calm     78 % 0.0 in 0.0 W/m2 CLR
19:05 3.9 °F 0.4 °F 1038.1 in Calm     78 % 0.0 in 0.0 W/m2 CLR
19:10 3.3 °F 0.1 °F 1038.1 in Calm     79 % 0.0 in 0.0 W/m2 CLR
19:11 3.3 °F 0.1 °F 1038.1 in Calm     79 % 0.0 in 0.0 W/m2 CLR
19:12 3.3 °F 0.1 °F 1038.1 in Calm     79 % 0.0 in 0.0 W/m2 CLR
19:17 2.8 °F -0.3 °F 1038.1 in Calm     80 % 0.0 in 0.0 W/m2 CLR
19:22 2.8 °F -0.2 °F 1038.1 in Calm     81 % 0.0 in 0.0 W/m2 CLR
19:23 2.8 °F -0.2 °F 1038.1 in Calm     81 % 0.0 in 0.0 W/m2 CLR
19:27 2.8 °F -0.2 °F 1038.1 in Calm     81 % 0.0 in 0.0 W/m2 CLR
19:31 2.2 °F -0.7 °F 1038.1 in Calm     81 % 0.0 in 0.0 W/m2 CLR
19:33 2.2 °F -0.7 °F 1038.5 in Calm     81 % 0.0 in 0.0 W/m2 CLR
19:38 2.2 °F -0.7 °F 1038.5 in Calm     81 % 0.0 in 0.0 W/m2 CLR
19:39 2.2 °F -0.7 °F 1038.5 in Calm     81 % 0.0 in 0.0 W/m2 CLR
19:44 1.7 °F -1.1 °F 1038.5 in Calm     82 % 0.0 in 0.0 W/m2 CLR
19:49 1.7 °F -0.9 °F 1038.5 in Calm     83 % 0.0 in 0.0 W/m2 CLR
19:51 1.7 °F -0.9 °F 1038.5 in Calm     83 % 0.0 in 0.0 W/m2 CLR
19:56 1.7 °F -0.9 °F 1038.5 in Calm     83 % 0.0 in 0.0 W/m2 CLR
19:57 1.7 °F -0.9 °F 1038.5 in Calm     83 % 0.0 in 0.0 W/m2 CLR
20:02 1.7 °F -0.7 °F 1038.5 in Calm     84 % 0.0 in 0.0 W/m2 CLR
20:06 1.7 °F -0.7 °F 1038.5 in Calm     84 % 0.0 in 0.0 W/m2 CLR
20:08 1.7 °F -0.7 °F 1038.5 in Calm     84 % 0.0 in 0.0 W/m2 CLR
20:13 1.7 °F -0.7 °F 1038.5 in Calm     84 % 0.0 in 0.0 W/m2 CLR
20:14 1.7 °F -0.7 °F 1038.5 in Calm     84 % 0.0 in 0.0 W/m2 CLR
20:19 1.7 °F -0.7 °F 1038.5 in Calm     84 % 0.0 in 0.0 W/m2 CLR
20:20 1.1 °F -1.3 °F 1038.5 in Calm     84 % 0.0 in 0.0 W/m2 CLR
20:21 1.1 °F -1.3 °F 1038.5 in Calm     84 % 0.0 in 0.0 W/m2 CLR
20:26 1.1 °F -1.3 °F 1038.5 in Calm     84 % 0.0 in 0.0 W/m2 CLR
20:29 1.7 °F -0.6 °F 1038.5 in Calm     85 % 0.0 in 0.0 W/m2 CLR
20:34 1.7 °F -0.6 °F 1038.5 in Calm     85 % 0.0 in 0.0 W/m2 CLR
20:37 1.7 °F -0.6 °F 1038.5 in Calm     85 % 0.0 in 0.0 W/m2 CLR
20:39 1.7 °F -0.6 °F 1038.5 in Calm     85 % 0.0 in 0.0 W/m2 CLR
20:42 1.7 °F -0.6 °F 1038.5 in Calm     85 % 0.0 in 0.0 W/m2 CLR
20:45 1.1 °F -1.1 °F 1038.8 in Calm     85 % 0.0 in 0.0 W/m2 CLR
20:50 1.1 °F -1.1 °F 1038.5 in Calm     85 % 0.0 in 0.0 W/m2 CLR
20:52 1.1 °F -0.9 °F 1038.5 in Calm     86 % 0.0 in 0.0 W/m2 CLR
20:55 0.6 °F -1.5 °F 1038.5 in Calm     86 % 0.0 in 0.0 W/m2 CLR
20:59 0.6 °F -1.5 °F 1038.5 in Calm     86 % 0.0 in 0.0 W/m2 CLR
21:01 0.6 °F -1.7 °F 1038.5 in Calm     85 % 0.0 in 0.0 W/m2 CLR
21:06 0.0 °F -2.2 °F 1038.5 in Calm     85 % 0.0 in 0.0 W/m2 CLR
21:08 0.6 °F -1.5 °F 1038.5 in Calm     86 % 0.0 in 0.0 W/m2 CLR
21:13 1.1 °F -0.9 °F 1038.5 in Calm     86 % 0.0 in 0.0 W/m2 CLR
21:14 1.1 °F -0.9 °F 1038.5 in Calm     86 % 0.0 in 0.0 W/m2 CLR
21:15 1.1 °F -0.9 °F 1038.5 in Calm     86 % 0.0 in 0.0 W/m2 CLR
21:20 1.1 °F -0.8 °F 1038.5 in Calm     87 % 0.0 in 0.0 W/m2 CLR
21:25 1.1 °F -0.8 °F 1038.5 in Calm     87 % 0.0 in 0.0 W/m2 CLR
21:26 1.1 °F -0.8 °F 1038.5 in Calm     87 % 0.0 in 0.0 W/m2 CLR
21:31 0.6 °F -1.3 °F 1038.5 in Calm     87 % 0.0 in 0.0 W/m2 CLR
21:33 0.6 °F -1.3 °F 1038.5 in Calm     87 % 0.0 in 0.0 W/m2 CLR
21:38 0.6 °F -1.3 °F 1038.5 in Calm     87 % 0.0 in 0.0 W/m2 CLR
21:42 0.0 °F -1.9 °F 1038.5 in Calm     87 % 0.0 in 0.0 W/m2 CLR
21:44 0.0 °F -1.9 °F 1038.5 in Calm     87 % 0.0 in 0.0 W/m2 CLR
21:49 0.0 °F -1.9 °F 1038.5 in Calm     87 % 0.0 in 0.0 W/m2 CLR
21:50 0.0 °F -1.9 °F 1038.5 in Calm     87 % 0.0 in 0.0 W/m2 CLR
21:55 0.0 °F -1.9 °F 1038.8 in Calm     87 % 0.0 in 0.0 W/m2 CLR
21:56 0.0 °F -1.9 °F 1038.8 in Calm     87 % 0.0 in 0.0 W/m2 CLR
22:00 0.0 °F -1.8 °F 1038.8 in Calm     88 % 0.0 in 0.0 W/m2 CLR
22:02 0.0 °F -1.9 °F 1038.8 in Calm     87 % 0.0 in 0.0 W/m2 CLR
22:03 0.0 °F -1.8 °F 1038.8 in Calm     88 % 0.0 in 0.0 W/m2 CLR
22:07 0.6 °F -1.3 °F 1038.8 in Calm     87 % 0.0 in 0.0 W/m2 CLR
22:09 0.6 °F -1.3 °F 1038.8 in Calm     87 % 0.0 in 0.0 W/m2 CLR
22:13 0.6 °F -1.3 °F 1038.5 in Calm     87 % 0.0 in 0.0 W/m2 CLR
22:18 0.0 °F -1.9 °F 1038.8 in Calm     87 % 0.0 in 0.0 W/m2 CLR
22:20 0.0 °F -1.9 °F 1038.8 in Calm     87 % 0.0 in 0.0 W/m2 CLR
22:25 0.0 °F -1.8 °F 1038.8 in Calm     88 % 0.0 in 0.0 W/m2 CLR
22:26 0.0 °F -1.8 °F 1038.8 in Calm     88 % 0.0 in 0.0 W/m2 CLR
22:31 0.0 °F -1.9 °F 1038.8 in Calm     87 % 0.0 in 0.0 W/m2 CLR
22:37 0.0 °F -1.8 °F 1038.8 in Calm     88 % 0.0 in 0.0 W/m2 CLR
22:42 0.0 °F -1.6 °F 1038.8 in Calm     89 % 0.0 in 0.0 W/m2 CLR
22:47 0.0 °F -1.8 °F 1038.5 in Calm     88 % 0.0 in 0.0 W/m2 CLR
22:50 0.0 °F -1.8 °F 1038.5 in Calm     88 % 0.0 in 0.0 W/m2 CLR
22:53 0.0 °F -1.8 °F 1038.5 in Calm     88 % 0.0 in 0.0 W/m2 CLR
22:55 0.0 °F -1.8 °F 1038.5 in Calm     88 % 0.0 in 0.0 W/m2 CLR
23:00 0.0 °F -1.8 °F 1038.8 in Calm     88 % 0.0 in 0.0 W/m2 CLR
23:05 0.0 °F -1.6 °F 1038.5 in Calm     89 % 0.0 in 0.0 W/m2 CLR
23:11 0.0 °F -1.6 °F 1038.8 in Calm     89 % 0.0 in 0.0 W/m2 CLR
23:16 0.0 °F -1.6 °F 1038.8 in Calm     89 % 0.0 in 0.0 W/m2 CLR
23:18 0.0 °F -1.6 °F 1038.8 in Calm     89 % 0.0 in 0.0 W/m2 CLR
23:22 0.0 °F -1.6 °F 1038.8 in Calm     89 % 0.0 in 0.0 W/m2 CLR
23:27 0.0 °F -1.8 °F 1038.8 in Calm     88 % 0.0 in 0.0 W/m2 CLR
23:32 0.0 °F -1.8 °F 1038.8 in Calm     88 % 0.0 in 0.0 W/m2 CLR
23:33 0.0 °F -1.6 °F 1038.8 in Calm     89 % 0.0 in 0.0 W/m2 CLR
23:38 0.0 °F -1.6 °F 1038.8 in Calm     89 % 0.0 in 0.0 W/m2 CLR
23:40 0.0 °F -1.6 °F 1038.8 in Calm     89 % 0.0 in 0.0 W/m2 CLR
23:45 0.0 °F -1.6 °F 1038.8 in Calm     89 % 0.0 in 0.0 W/m2 CLR
23:47 0.0 °F -1.6 °F 1038.8 in Calm     89 % 0.0 in 0.0 W/m2 CLR
23:49 0.0 °F -1.6 °F 1038.8 in Calm     89 % 0.0 in 0.0 W/m2 CLR
23:54 0.0 °F -1.8 °F 1038.8 in Calm     88 % 0.0 in 0.0 W/m2 CLR
23:59 -0.6 °F -2.2 °F 1038.8 in Calm     89 % 0.0 in 0.0 W/m2 CLR
Lo Temps de Massalio
Compliments of Weather Underground - 1.75 mb